Time;durP1;ratioP1;P1;durP2;ratioP2;P2;SDS_P1;SDS_P2;PMS_P1;PMS_P2;Temp;Humidity;BMP_temperature;BMP_pressure;BME280_temperature;BME280_humidity;BME280_pressure;Samples;Min_cycle;Max_cycle;Signal;HPM_P1;HPM_P2
2021/09/07 00:01:28;;;;;;;28.70;16.97;;;;;;;11.92;100.00;102066.44;5030995;28;20441;-68
2021/09/07 00:03:53;;;;;;;27.90;16.90;;;;;;;11.88;100.00;102068.53;5030638;28;20052;-68
2021/09/07 00:06:19;;;;;;;33.70;19.08;;;;;;;11.86;100.00;102069.63;5030614;28;20128;-68
2021/09/07 00:08:45;;;;;;;30.77;18.83;;;;;;;11.83;100.00;102074.25;5048001;28;20033;-68
2021/09/07 00:11:14;;;;;;;27.70;16.48;;;;;;;11.82;100.00;102071.72;5030823;28;20199;-69
2021/09/07 00:13:40;;;;;;;34.97;20.98;;;;;;;11.82;100.00;102071.72;5048102;28;20120;-68
2021/09/07 00:16:08;;;;;;;35.63;20.10;;;;;;;11.78;100.00;102068.47;5030494;28;20361;-68
2021/09/07 00:18:35;;;;;;;32.93;20.60;;;;;;;11.66;100.00;102069.59;5013886;28;20040;-68
2021/09/07 00:21:00;;;;;;;34.00;21.02;;;;;;;11.64;100.00;102070.72;5030748;28;20129;-68
2021/09/07 00:23:25;;;;;;;35.40;20.07;;;;;;;11.49;100.00;102059.53;5030690;28;20063;-68
2021/09/07 00:25:51;;;;;;;27.73;17.37;;;;;;;11.48;100.00;102065.88;5014623;28;20116;-68
2021/09/07 00:28:16;;;;;;;32.93;20.20;;;;;;;11.41;100.00;102070.91;5051943;28;20535;-68
2021/09/07 00:30:41;;;;;;;26.30;16.60;;;;;;;11.30;100.00;102055.81;5052122;28;20029;-68
2021/09/07 00:33:08;;;;;;;28.87;18.10;;;;;;;11.28;100.00;102062.28;5034739;28;20564;-68
2021/09/07 00:35:34;;;;;;;28.70;18.10;;;;;;;11.28;100.00;102055.09;5017718;28;20060;-68
2021/09/07 00:38:00;;;;;;;31.02;18.73;;;;;;;11.24;100.00;102055.50;5017937;28;20036;-68
2021/09/07 00:40:26;;;;;;;28.27;17.40;;;;;;;11.21;100.00;102051.28;5051783;28;20037;-68
2021/09/07 00:42:51;;;;;;;26.30;17.70;;;;;;;11.19;100.00;102061.25;5052282;28;20090;-68
2021/09/07 00:45:16;;;;;;;28.87;16.90;;;;;;;11.16;100.00;102058.84;5017711;28;20041;-68
2021/09/07 00:47:42;;;;;;;32.37;18.23;;;;;;;11.07;100.00;102055.16;5051903;28;20079;-68
2021/09/07 00:50:08;;;;;;;31.00;17.73;;;;;;;11.08;100.00;102061.38;5051558;28;20139;-68
2021/09/07 00:52:38;;;;;;;26.40;16.05;;;;;;;11.04;100.00;102059.94;5051928;28;20064;-68
2021/09/07 00:55:04;;;;;;;30.60;18.23;;;;;;;11.09;100.00;102060.38;5051569;28;20032;-68
2021/09/07 00:57:31;;;;;;;30.05;18.35;;;;;;;11.06;100.00;102057.97;5017556;28;20064;-68
2021/09/07 00:59:57;;;;;;;38.85;20.13;;;;;;;11.08;100.00;102056.88;5051251;28;20060;-68
2021/09/07 01:02:25;;;;;;;40.35;23.92;;;;;;;11.11;100.00;102067.28;5034202;28;20357;-68
2021/09/07 01:04:50;;;;;;;;;;;;;;;11.07;100.00;102059.66;5051249;28;20136;-68
2021/09/07 01:07:18;;;;;;;37.42;20.48;;;;;;;11.01;100.00;102055.72;5051255;28;19909;-68
2021/09/07 01:09:43;;;;;;;;;;;;;;;11.01;100.00;102054.88;5051813;28;20045;-68
2021/09/07 01:12:09;;;;;;;;;;;;;;;10.94;100.00;102052.72;5051955;28;19966;-68
2021/09/07 01:14:38;;;;;;;36.75;20.40;;;;;;;10.93;100.00;102047.50;5050345;28;19916;-68
2021/09/07 01:17:15;;;;;;;35.40;19.40;;;;;;;10.90;100.00;102051.28;5051156;28;20033;-68
2021/09/07 01:19:46;;;;;;;35.80;19.30;;;;;;;10.83;100.00;102047.44;5033508;28;20064;-68
2021/09/07 01:22:12;;;;;;;31.55;18.45;;;;;;;10.82;100.00;102059.13;5017057;28;20049;-68
2021/09/07 01:24:38;;;;;;;30.30;17.58;;;;;;;10.80;100.00;102061.09;5051045;28;20511;-68
2021/09/07 01:27:06;;;;;;;28.23;18.00;;;;;;;10.76;100.00;102055.13;5051069;28;20044;-68
2021/09/07 01:29:34;;;;;;;30.70;18.10;;;;;;;10.79;100.00;102059.38;5050959;28;20056;-68
2021/09/07 01:32:01;;;;;;;30.85;17.15;;;;;;;10.83;100.00;102068.81;5050894;28;20506;-68
2021/09/07 01:34:26;;;;;;;34.53;21.17;;;;;;;10.91;100.00;102071.69;5033392;28;20078;-68
2021/09/07 01:36:52;;;;;;;34.47;19.23;;;;;;;10.90;100.00;102066.47;5049984;28;20045;-68
2021/09/07 01:39:20;;;;;;;35.33;18.07;;;;;;;10.83;100.00;102067.97;5032636;28;20801;-68
2021/09/07 01:41:46;;;;;;;30.42;18.30;;;;;;;10.78;100.00;102068.38;5033248;28;20060;-68
2021/09/07 01:44:11;;;;;;;26.00;17.77;;;;;;;10.79;100.00;102078.06;5050730;28;20134;-68
2021/09/07 01:46:37;;;;;;;37.17;21.90;;;;;;;10.81;100.00;102070.78;5032995;28;20029;-68
2021/09/07 01:49:03;;;;;;;32.80;20.08;;;;;;;10.81;100.00;102068.09;5050435;28;20053;-68
2021/09/07 01:51:29;;;;;;;38.50;18.40;;;;;;;10.81;100.00;102068.09;5050742;28;20051;-68
2021/09/07 01:53:54;;;;;;;31.07;19.07;;;;;;;10.77;100.00;102067.53;5033081;28;20045;-68
2021/09/07 01:56:20;;;;;;;45.38;21.35;;;;;;;10.82;100.00;102067.13;5032963;28;20029;-68
2021/09/07 01:58:46;;;;;;;37.60;21.43;;;;;;;10.82;100.00;102067.13;5032824;28;20106;-68
2021/09/07 02:01:11;;;;;;;32.03;19.87;;;;;;;10.81;100.00;102062.75;5033207;28;20021;-68
2021/09/07 02:03:37;;;;;;;42.50;23.52;;;;;;;10.92;100.00;102070.69;5032810;28;20032;-68
2021/09/07 02:06:02;;;;;;;45.07;24.93;;;;;;;10.90;100.00;102080.66;5050363;28;20047;-68
2021/09/07 02:08:28;;;;;;;38.90;22.17;;;;;;;10.86;100.00;102070.38;5016097;28;20027;-68
2021/09/07 02:10:54;;;;;;;43.95;24.02;;;;;;;10.83;100.00;102070.66;5032963;28;20028;-68
2021/09/07 02:13:20;;;;;;;46.80;25.30;;;;;;;10.82;100.00;102071.66;5050369;28;20442;-68
2021/09/07 02:15:46;;;;;;;41.70;23.33;;;;;;;10.78;100.00;102066.53;5050254;28;20035;-68
2021/09/07 02:18:11;;;;;;;53.90;25.23;;;;;;;10.73;100.00;102066.09;5049884;28;20458;-68
2021/09/07 02:20:38;;;;;;;42.55;23.73;;;;;;;10.67;100.00;102055.94;5050197;28;20037;-68
2021/09/07 02:23:06;;;;;;;;;;;;;;;10.64;100.00;102060.69;5033293;28;20031;-68
2021/09/07 02:25:32;;;;;;;32.80;22.02;;;;;;;10.52;100.00;102055.41;5050052;28;20513;-69
2021/09/07 02:27:57;;;;;;;42.50;26.33;;;;;;;10.49;100.00;102055.69;5049977;28;20064;-70
2021/09/07 02:30:23;;;;;;;37.45;20.70;;;;;;;10.52;100.00;102055.41;5049991;28;20040;-67
2021/09/07 02:32:49;;;;;;;37.75;22.17;;;;;;;10.53;100.00;102057.09;5050062;28;20040;-67
2021/09/07 02:35:15;;;;;;;39.83;23.73;;;;;;;10.50;100.00;102056.53;5032037;28;20029;-67
2021/09/07 02:37:41;;;;;;;53.30;29.20;;;;;;;10.51;100.00;102059.09;5049967;28;20021;-67
2021/09/07 02:40:07;;;;;;;;;;;;;;;10.49;100.00;102057.53;5050055;28;20037;-67
2021/09/07 02:42:33;;;;;;;40.60;22.70;;;;;;;10.39;100.00;102052.09;5050010;28;19924;-67
2021/09/07 02:45:00;;;;;;;;;;;;;;;10.42;100.00;102057.19;5049976;28;20060;-67
2021/09/07 02:47:25;;;;;;;40.55;23.88;;;;;;;10.39;100.00;102059.25;5015917;28;20349;-67
2021/09/07 02:49:51;;;;;;;49.87;26.93;;;;;;;10.31;100.00;102065.25;5031316;28;20449;-67
2021/09/07 02:52:17;;;;;;;38.95;22.42;;;;;;;10.25;100.00;102065.72;5032463;28;20017;-67
2021/09/07 02:54:43;;;;;;;40.10;21.85;;;;;;;10.18;100.00;102061.88;5049469;28;20660;-67
2021/09/07 02:57:08;;;;;;;42.97;23.87;;;;;;;10.14;100.00;102067.47;5049618;28;20070;-67
2021/09/07 02:59:34;;;;;;;39.90;22.83;;;;;;;10.11;100.00;102059.72;5049285;28;20021;-69
2021/09/07 03:02:00;;;;;;;39.45;22.83;;;;;;;10.09;100.00;102060.81;5049585;28;20063;-69
2021/09/07 03:04:26;;;;;;;45.83;23.90;;;;;;;10.14;100.00;102062.13;5049030;28;20124;-70
2021/09/07 03:06:51;;;;;;;38.60;23.33;;;;;;;10.12;100.00;102058.75;5049492;28;20112;-70
2021/09/07 03:09:17;;;;;;;44.43;25.33;;;;;;;10.13;100.00;102060.41;5048246;28;20139;-70
2021/09/07 03:11:42;;;;;;;51.97;28.65;;;;;;;10.18;100.00;102068.03;5031958;28;20091;-70
2021/09/07 03:14:08;;;;;;;40.00;23.10;;;;;;;10.13;100.00;102060.41;5049341;28;20040;-70
2021/09/07 03:16:34;;;;;;;40.00;23.45;;;;;;;10.09;100.00;102066.13;5031563;28;20032;-70
2021/09/07 03:19:04;;;;;;;38.92;21.95;;;;;;;10.07;100.00;102068.13;5031609;28;20516;-70
2021/09/07 03:21:30;;;;;;;43.00;25.40;;;;;;;10.07;100.00;102071.63;5031548;28;20434;-67
2021/09/07 03:23:56;;;;;;;43.65;22.25;;;;;;;10.03;100.00;102066.66;5049176;28;20029;-67
2021/09/07 03:26:22;;;;;;;37.80;21.98;;;;;;;9.99;100.00;102074.06;5048762;28;20025;-67
2021/09/07 03:28:48;;;;;;;41.00;21.77;;;;;;;9.99;100.00;102065.22;5048864;28;20061;-70
2021/09/07 03:31:14;;;;;;;48.10;27.83;;;;;;;10.00;100.00;102066.94;5031416;28;20033;-70
2021/09/07 03:33:41;;;;;;;44.88;27.02;;;;;;;10.01;100.00;102074.78;5048912;28;20120;-70
2021/09/07 03:36:08;;;;;;;48.33;26.98;;;;;;;9.97;100.00;102070.66;5048709;28;20429;-70
2021/09/07 03:38:33;;;;;;;47.03;24.67;;;;;;;9.94;100.00;102077.09;5048830;28;20457;-70
2021/09/07 03:40:59;;;;;;;34.63;22.25;;;;;;;9.88;100.00;102071.41;5015006;28;20060;-70
2021/09/07 03:43:25;;;;;;;45.90;23.57;;;;;;;9.91;100.00;102071.19;5031535;28;20629;-67
2021/09/07 03:45:50;;;;;;;48.97;26.97;;;;;;;9.93;100.00;102067.41;5048331;28;20037;-70
2021/09/07 03:48:15;;;;;;;55.00;29.07;;;;;;;9.92;100.00;102080.88;5048371;28;20032;-70
2021/09/07 03:50:41;;;;;;;43.03;25.13;;;;;;;9.87;100.00;102069.75;5031129;28;20119;-70
2021/09/07 03:53:07;;;;;;;44.83;24.40;;;;;;;9.85;100.00;102077.00;5031406;28;20047;-69
2021/09/07 03:55:33;;;;;;;44.33;24.58;;;;;;;9.86;100.00;102065.38;5048521;28;20108;-67
2021/09/07 03:58:00;;;;;;;55.00;31.20;;;;;;;9.97;100.00;102069.81;5031278;28;20079;-67
2021/09/07 04:00:25;;;;;;;46.50;23.98;;;;;;;9.95;100.00;102067.31;5030192;28;20037;-67
2021/09/07 04:02:52;;;;;;;42.92;26.10;;;;;;;9.97;100.00;102078.66;5031091;28;20086;-67
2021/09/07 04:05:18;;;;;;;43.93;24.27;;;;;;;10.03;100.00;102080.84;5030862;28;20037;-67
2021/09/07 04:07:43;;;;;;;44.88;25.30;;;;;;;10.00;100.00;102081.09;5048289;28;20029;-70
2021/09/07 04:10:09;;;;;;;64.07;32.40;;;;;;;10.12;100.00;102088.09;5030932;28;20415;-70
2021/09/07 04:12:35;;;;;;;71.83;34.90;;;;;;;10.22;100.00;102090.84;5048253;28;20048;-69
2021/09/07 04:15:02;;;;;;;47.47;27.90;;;;;;;10.25;100.00;102092.41;5030725;28;20028;-69
2021/09/07 04:17:27;;;;;;;51.10;29.70;;;;;;;10.27;100.00;102090.47;5030605;28;20040;-69
2021/09/07 04:19:53;;;;;;;54.92;30.23;;;;;;;10.35;100.00;102085.38;5030599;28;20438;-69
2021/09/07 04:22:19;;;;;;;58.55;31.65;;;;;;;10.41;100.00;102098.19;5030627;28;20041;-69
2021/09/07 04:24:44;;;;;;;55.63;32.73;;;;;;;10.43;100.00;102093.56;5030685;28;20037;-69
2021/09/07 04:27:10;;;;;;;47.40;29.87;;;;;;;10.57;100.00;102103.09;5030473;28;20068;-69
2021/09/07 04:29:36;;;;;;;65.13;32.93;;;;;;;10.63;100.00;102105.25;5048011;28;20045;-69
2021/09/07 04:32:01;;;;;;;57.65;32.13;;;;;;;10.66;100.00;102099.66;5047873;28;20036;-69
2021/09/07 04:34:27;;;;;;;59.90;33.27;;;;;;;10.78;100.00;102108.44;5014126;28;20488;-69
2021/09/07 04:36:52;;;;;;;55.83;31.70;;;;;;;10.81;100.00;102099.31;5014100;28;20045;-69
2021/09/07 04:39:17;;;;;;;52.80;29.63;;;;;;;10.83;100.00;102090.19;5047777;28;20037;-69
2021/09/07 04:41:43;;;;;;;58.57;31.40;;;;;;;10.87;100.00;102091.63;5030729;28;20056;-69
2021/09/07 04:44:09;;;;;;;77.68;41.45;;;;;;;10.99;100.00;102090.56;5047664;28;20033;-69
2021/09/07 04:46:35;;;;;;;67.27;33.13;;;;;;;11.01;100.00;102087.78;5047898;28;20069;-69
2021/09/07 04:49:00;;;;;;;63.73;33.83;;;;;;;11.03;100.00;102085.81;5029863;28;20147;-69
2021/09/07 04:51:26;;;;;;;69.50;34.57;;;;;;;11.08;100.00;102082.75;5048122;28;20037;-69
2021/09/07 04:53:52;;;;;;;70.18;36.67;;;;;;;11.03;100.00;102077.81;5047832;28;20036;-69
2021/09/07 04:56:20;;;;;;;66.03;32.05;;;;;;;11.11;100.00;102083.31;5047736;28;20036;-68
2021/09/07 04:58:46;;;;;;;57.10;32.58;;;;;;;11.19;100.00;102085.31;5013484;28;20051;-69
2021/09/07 05:01:11;;;;;;;57.67;33.40;;;;;;;11.24;100.00;102083.09;5047818;28;20454;-69
2021/09/07 05:03:37;;;;;;;57.95;34.38;;;;;;;11.28;100.00;102084.50;5047679;28;20029;-69
2021/09/07 05:06:02;;;;;;;50.47;31.50;;;;;;;11.33;100.00;102081.44;5047548;28;20033;-69
2021/09/07 05:08:28;;;;;;;52.03;30.23;;;;;;;11.32;100.00;102085.09;5029462;28;20079;-69
2021/09/07 05:10:53;;;;;;;47.03;27.33;;;;;;;11.31;100.00;102094.94;5047862;28;20055;-69
2021/09/07 05:13:19;;;;;;;50.43;29.60;;;;;;;11.30;100.00;102085.22;5050800;28;20068;-69
2021/09/07 05:15:44;;;;;;;47.53;28.67;;;;;;;11.34;100.00;102089.31;5033752;28;20275;-69
2021/09/07 05:18:10;;;;;;;49.27;29.17;;;;;;;11.37;100.00;102094.41;5051181;28;20029;-69
2021/09/07 05:20:35;;;;;;;45.30;27.85;;;;;;;11.40;100.00;102087.94;5051229;28;20529;-69
2021/09/07 05:23:01;;;;;;;51.40;29.43;;;;;;;11.46;100.00;102094.59;5051299;28;20036;-69
2021/09/07 05:25:28;;;;;;;57.73;31.07;;;;;;;11.47;100.00;102094.47;5033459;28;20132;-69
2021/09/07 05:27:54;;;;;;;49.30;28.05;;;;;;;11.51;100.00;102097.69;5033646;28;20079;-69
2021/09/07 05:30:20;;;;;;;49.03;28.58;;;;;;;11.55;100.00;102091.94;5050836;28;20513;-69
2021/09/07 05:32:46;;;;;;;52.03;30.73;;;;;;;11.63;100.00;102099.28;5051052;28;20108;-69
2021/09/07 05:35:11;;;;;;;50.17;29.80;;;;;;;11.67;100.00;102090.00;5033276;28;20477;-69
2021/09/07 05:37:40;;;;;;;36.00;25.13;;;;;;;11.87;100.00;102092.69;5051001;28;20032;-69
2021/09/07 05:40:07;;;;;;;50.80;29.73;;;;;;;12.01;100.00;102098.56;5050592;28;20024;-69
2021/09/07 05:42:32;;;;;;;54.70;30.77;;;;;;;12.12;100.00;102094.88;5016987;28;20039;-69
2021/09/07 05:44:58;;;;;;;43.77;25.90;;;;;;;12.33;100.00;102093.91;5050581;28;20036;-69
2021/09/07 05:47:23;;;;;;;45.37;27.63;;;;;;;12.52;100.00;102098.41;5033142;28;20032;-69
2021/09/07 05:50:07;;;;;;;39.53;23.60;;;;;;;12.72;100.00;102093.91;5050524;28;20075;-69
2021/09/07 05:52:33;;;;;;;50.20;28.67;;;;;;;12.90;100.00;102102.88;5033470;28;20047;-69
2021/09/07 05:54:59;;;;;;;40.93;23.70;;;;;;;13.17;100.00;102096.72;5032845;28;20029;-69
2021/09/07 05:57:24;;;;;;;39.23;25.47;;;;;;;13.70;100.00;102100.63;5033081;28;20090;-69
2021/09/07 05:59:51;;;;;;;39.47;22.93;;;;;;;14.35;100.00;102108.47;5032759;28;20044;-69
2021/09/07 06:02:16;;;;;;;36.75;21.90;;;;;;;15.08;96.92;102100.19;5032851;28;20021;-69
2021/09/07 06:04:41;;;;;;;35.57;21.37;;;;;;;15.48;92.54;102108.63;5050379;28;20041;-69
2021/09/07 06:07:07;;;;;;;31.50;19.10;;;;;;;15.47;91.93;102105.06;5032835;28;20797;-69
2021/09/07 06:09:32;;;;;;;36.13;21.73;;;;;;;15.19;92.14;102112.50;5016119;28;20358;-69
2021/09/07 06:11:57;;;;;;;28.23;18.47;;;;;;;15.04;93.03;102114.94;5032654;28;20425;-69
2021/09/07 06:14:23;;;;;;;30.53;19.80;;;;;;;14.94;92.83;102119.59;5032612;28;20438;-69
2021/09/07 06:16:48;;;;;;;38.72;22.20;;;;;;;14.96;93.03;102122.94;5050027;28;20361;-69
2021/09/07 06:19:14;;;;;;;34.80;20.67;;;;;;;15.06;92.96;102122.84;5050066;28;20040;-69
2021/09/07 06:21:39;;;;;;;27.90;20.10;;;;;;;15.20;91.98;102119.56;5050112;28;20041;-69
2021/09/07 06:24:04;;;;;;;37.30;22.23;;;;;;;14.83;92.18;102122.53;5031645;28;20059;-69
2021/09/07 06:26:30;;;;;;;29.87;19.70;;;;;;;15.37;92.53;102120.50;5015900;28;20359;-69
2021/09/07 06:28:55;;;;;;;29.80;20.23;;;;;;;15.86;90.56;102125.28;5049785;28;20537;-69
2021/09/07 06:31:20;;;;;;;29.57;19.40;;;;;;;16.22;87.29;102126.72;5059387;22;20448;-69
2021/09/07 06:33:46;;;;;;;24.27;16.03;;;;;;;16.63;85.83;102121.31;5038050;23;20373;-69
2021/09/07 06:36:11;;;;;;;26.40;17.53;;;;;;;16.82;83.76;102127.41;5048410;28;20040;-69
2021/09/07 06:38:36;;;;;;;28.03;17.47;;;;;;;16.89;83.62;102123.03;5048667;28;20053;-69
2021/09/07 06:41:06;;;;;;;31.77;17.47;;;;;;;16.91;84.07;102129.09;5031334;28;20036;-69
2021/09/07 06:43:32;;;;;;;24.67;17.98;;;;;;;17.46;81.93;102138.22;5048514;28;20061;-70
2021/09/07 06:45:57;;;;;;;26.27;16.87;;;;;;;17.88;78.63;102120.84;5031049;28;20036;-69
2021/09/07 06:48:22;;;;;;;25.17;17.53;;;;;;;17.55;79.58;102129.09;5030710;28;20485;-70
2021/09/07 06:50:47;;;;;;;19.83;14.17;;;;;;;17.68;79.77;102132.06;5030990;28;20051;-70
2021/09/07 06:53:13;;;;;;;22.43;17.07;;;;;;;17.38;79.59;102135.56;5048270;28;20260;-70
2021/09/07 06:55:38;;;;;;;24.23;15.90;;;;;;;17.30;80.50;102128.31;5030764;28;20490;-70
2021/09/07 06:58:04;;;;;;;21.80;14.87;;;;;;;17.45;80.40;102132.00;5047895;28;20474;-70
2021/09/07 07:00:29;;;;;;;26.63;15.25;;;;;;;17.43;80.54;102133.19;5030790;28;20286;-70
2021/09/07 07:02:55;;;;;;;23.03;17.03;;;;;;;16.76;82.42;102131.59;5048224;28;20033;-70
2021/09/07 07:05:20;;;;;;;22.87;16.83;;;;;;;16.94;83.46;102128.75;5048155;28;20099;-70
2021/09/07 07:07:46;;;;;;;25.00;16.80;;;;;;;17.34;80.71;102134.22;5030359;28;20033;-70
2021/09/07 07:10:11;;;;;;;20.07;14.33;;;;;;;18.06;79.30;102126.00;5013876;28;20029;-70
2021/09/07 07:12:36;;;;;;;21.83;13.77;;;;;;;18.11;77.12;102124.44;5048231;28;20064;-70
2021/09/07 07:15:02;;;;;;;24.17;15.43;;;;;;;17.84;78.73;102135.72;5030393;28;20248;-70
2021/09/07 07:17:27;;;;;;;19.43;14.13;;;;;;;17.85;78.35;102140.97;5048227;28;20036;-70
2021/09/07 07:19:52;;;;;;;21.73;13.97;;;;;;;17.55;80.24;102142.59;5013492;28;20037;-70
2021/09/07 07:22:19;;;;;;;21.70;13.27;;;;;;;17.99;78.77;102146.66;5048074;28;20039;-69
2021/09/07 07:24:45;;;;;;;19.65;14.35;;;;;;;18.19;77.99;102147.88;5029776;28;20060;-70
2021/09/07 07:27:10;;;;;;;19.13;13.73;;;;;;;18.04;78.61;102149.66;5030161;28;20469;-70
2021/09/07 07:29:35;;;;;;;18.63;13.20;;;;;;;18.21;77.96;102151.22;5029632;28;20373;-70
2021/09/07 07:32:01;;;;;;;25.17;14.63;;;;;;;17.86;79.53;102156.16;5030155;28;20056;-70
2021/09/07 07:34:26;;;;;;;21.37;15.10;;;;;;;17.86;80.03;102158.00;5029924;28;20032;-70
2021/09/07 07:36:55;;;;;;;18.77;13.33;;;;;;;18.17;78.37;102154.47;5030311;28;20557;-70
2021/09/07 07:39:21;;;;;;;19.80;11.93;;;;;;;18.77;77.44;102157.25;5029420;28;20139;-70
2021/09/07 07:41:46;;;;;;;21.42;13.98;;;;;;;19.03;75.24;102156.00;5047734;28;20028;-70
2021/09/07 07:44:11;;;;;;;20.87;11.27;;;;;;;19.50;74.22;102159.38;5029627;28;20575;-70
2021/09/07 07:46:37;;;;;;;19.47;12.13;;;;;;;19.18;75.21;102143.34;5047520;28;20505;-70
2021/09/07 07:49:03;;;;;;;19.07;12.13;;;;;;;19.23;74.40;102150.06;5013220;28;20041;-70
2021/09/07 07:51:28;;;;;;;;;;;;;;;19.55;73.36;102154.25;5030170;28;20682;-70
2021/09/07 07:53:53;;;;;;;;;;;;;;;19.26;74.35;102155.94;5030219;28;19917;-70
2021/09/07 07:56:19;;;;;;;15.60;9.73;;;;;;;19.64;72.77;102155.00;5046986;28;19974;-70
2021/09/07 07:58:44;;;;;;;12.70;9.37;;;;;;;19.77;72.20;102139.78;5047144;28;20541;-70
2021/09/07 08:01:09;;;;;;;22.87;12.20;;;;;;;19.39;73.26;102141.75;5029611;28;20037;-70
2021/09/07 08:03:35;;;;;;;15.77;10.60;;;;;;;19.57;73.92;102154.91;5047406;28;20047;-70
2021/09/07 08:06:00;;;;;;;16.70;11.03;;;;;;;19.64;75.57;102153.13;5029418;28;20029;-70
2021/09/07 08:08:26;;;;;;;18.87;10.33;;;;;;;19.82;73.05;102156.31;5029467;28;20032;-70
2021/09/07 08:10:51;;;;;;;13.23;7.30;;;;;;;20.00;69.93;102157.78;5046947;28;20040;-70
2021/09/07 08:13:16;;;;;;;12.83;8.30;;;;;;;19.88;69.99;102148.44;5013333;28;20048;-70
2021/09/07 08:15:41;;;;;;;17.17;8.73;;;;;;;20.26;68.67;102153.69;5029239;28;20044;-70
2021/09/07 08:18:07;;;;;;;10.43;7.63;;;;;;;20.18;69.34;102160.91;5047337;28;20044;-70
2021/09/07 08:20:33;;;;;;;21.35;9.90;;;;;;;20.30;69.52;102161.25;5047010;28;20036;-70
2021/09/07 08:23:00;;;;;;;13.70;8.80;;;;;;;20.78;70.78;102160.66;5047163;28;20503;-70
2021/09/07 08:25:25;;;;;;;17.80;9.45;;;;;;;21.34;67.48;102174.22;5047297;28;20033;-70
2021/09/07 08:27:51;;;;;;;14.27;9.60;;;;;;;21.69;65.77;102176.97;5029136;28;20033;-70
2021/09/07 08:30:16;;;;;;;16.97;10.33;;;;;;;21.82;65.78;102178.91;5029287;28;20488;-70
2021/09/07 08:32:42;;;;;;;9.17;6.57;;;;;;;22.02;65.39;102176.25;5046646;28;20032;-70
2021/09/07 08:35:10;;;;;;;11.75;7.82;;;;;;;22.46;62.16;102175.78;5046899;28;20044;-70
2021/09/07 08:37:36;;;;;;;14.15;8.23;;;;;;;22.93;60.01;102183.97;5029028;28;20376;-68
2021/09/07 08:42:29;;;;;;;12.02;8.23;;;;;;;22.14;61.61;102182.78;5051169;22;19928;-69
2021/09/07 08:47:25;;;;;;;14.65;8.90;;;;;;;22.91;59.60;102177.91;5075014;22;20051;-68
2021/09/07 08:49:50;;;;;;;13.03;8.57;;;;;;;22.25;61.20;102184.94;5033085;28;20033;-68
2021/09/07 08:52:18;;;;;;;13.90;8.07;;;;;;;22.09;61.58;102175.25;5016545;28;20113;-69
2021/09/07 08:54:44;;;;;;;12.30;8.25;;;;;;;20.55;66.05;102168.97;5033085;28;20087;-68
2021/09/07 08:57:10;;;;;;;14.68;7.80;;;;;;;20.68;67.42;102168.31;5032818;28;20041;-70
2021/09/07 08:59:36;;;;;;;11.27;7.47;;;;;;;21.39;65.18;102168.19;5033208;28;20437;-70
2021/09/07 09:02:17;;;;;;;12.15;7.70;;;;;;;21.53;64.47;102169.97;5050620;28;20719;-70
2021/09/07 09:04:45;;;;;;;13.35;8.20;;;;;;;21.79;65.46;102163.81;5016210;28;20029;-70
2021/09/07 09:07:26;;;;;;;13.07;7.85;;;;;;;20.73;66.98;102168.56;5032901;28;20045;-70
2021/09/07 09:09:52;;;;;;;13.40;7.88;;;;;;;22.04;64.19;102164.13;5050241;28;20060;-70
2021/09/07 09:12:39;;;;;;;10.00;6.55;;;;;;;22.57;61.41;102168.91;5032922;28;20025;-70
2021/09/07 09:15:16;;;;;;;11.00;6.45;;;;;;;22.26;61.74;102170.28;5050256;28;20249;-70
2021/09/07 09:17:42;;;;;;;9.95;6.40;;;;;;;21.93;62.01;102175.59;5032541;28;20041;-70
2021/09/07 09:20:15;;;;;;;9.73;6.00;;;;;;;22.01;62.93;102177.28;5015974;28;20037;-70
2021/09/07 09:22:42;;;;;;;12.98;7.10;;;;;;;21.78;62.58;102181.19;5050369;28;20072;-70
2021/09/07 09:25:35;;;;;;;10.02;6.75;;;;;;;22.30;61.98;102179.72;5032439;28;20021;-70
2021/09/07 09:28:09;;;;;;;14.30;6.18;;;;;;;22.90;58.59;102176.25;5050271;28;20036;-70
2021/09/07 09:30:44;;;;;;;10.85;6.32;;;;;;;22.08;60.00;102180.91;5032754;28;20036;-69
2021/09/07 09:33:12;;;;;;;10.85;7.22;;;;;;;20.98;63.28;102180.69;5050052;28;20051;-70
2021/09/07 09:35:51;;;;;;;9.07;5.47;;;;;;;21.61;63.51;102193.44;5050855;28;20048;-70
2021/09/07 09:38:18;;;;;;;9.45;5.13;;;;;;;21.80;60.09;102181.84;5033239;28;20120;-70
2021/09/07 09:40:51;;;;;;;11.88;5.15;;;;;;;22.25;59.13;102184.94;5016907;28;20083;-70
2021/09/07 09:43:37;;;;;;;7.45;4.97;;;;;;;21.91;61.83;102174.97;5066680;22;20037;-70
2021/09/07 09:46:23;;;;;;;7.28;4.45;;;;;;;22.32;59.02;102172.19;5049335;28;20102;-70
2021/09/07 09:48:50;;;;;;;8.35;4.93;;;;;;;23.11;57.01;102167.88;5049666;28;20634;-70
2021/09/07 09:51:17;;;;;;;9.18;5.47;;;;;;;22.95;55.13;102162.81;5032088;28;20028;-70
2021/09/07 09:53:50;;;;;;;8.68;4.70;;;;;;;23.38;55.18;102173.25;5049897;28;20036;-70
2021/09/07 09:56:16;;;;;;;11.00;4.97;;;;;;;23.47;54.95;102163.78;5049209;28;20068;-70
2021/09/07 09:58:41;;;;;;;6.45;4.22;;;;;;;23.95;53.06;102165.31;5013866;28;20057;-70
2021/09/07 10:01:08;;;;;;;7.43;4.07;;;;;;;24.07;53.92;102165.47;5031656;28;20491;-68
2021/09/07 10:03:36;;;;;;;7.43;3.85;;;;;;;24.27;52.85;102160.72;5031911;28;20492;-68
2021/09/07 10:06:02;;;;;;;7.47;3.50;;;;;;;24.40;52.93;102166.09;5031325;28;20029;-68
2021/09/07 10:08:27;;;;;;;9.13;3.97;;;;;;;23.87;51.64;102160.13;5031877;28;20369;-68
2021/09/07 10:11:00;;;;;;;7.83;4.03;;;;;;;22.92;51.90;102174.97;5049301;28;20461;-68
2021/09/07 10:13:28;;;;;;;5.43;3.42;;;;;;;21.59;55.34;102162.94;5031729;28;20056;-70
2021/09/07 10:16:06;;;;;;;8.45;3.60;;;;;;;22.22;54.70;102160.03;5014904;28;20020;-70
2021/09/07 10:18:46;;;;;;;7.43;3.78;;;;;;;22.58;54.17;102167.00;5048988;28;20048;-70
2021/09/07 10:24:44;;;;;;;6.75;2.78;;;;;;;22.59;54.01;102169.50;5031795;28;20140;-70
2021/09/07 10:26:44;;;;;;;4.60;3.15;;;;;;;23.56;50.62;102162.50;5027394;28;20075;-70
2021/09/07 10:29:31;;;;;;;4.72;2.92;;;;;;;23.86;47.73;102147.53;5015032;28;20044;-70
2021/09/07 10:31:57;;;;;;;3.47;2.22;;;;;;;24.26;46.20;102147.31;5049043;28;20523;-70
2021/09/07 10:34:28;;;;;;;5.68;2.50;;;;;;;24.84;42.65;102149.81;5048916;28;20513;-70
2021/09/07 10:36:57;;;;;;;4.47;2.63;;;;;;;25.30;43.50;102145.00;5031396;28;20033;-70
2021/09/07 10:39:34;;;;;;;4.75;2.70;;;;;;;24.57;44.59;102139.13;5048779;28;20040;-70
2021/09/07 10:42:03;;;;;;;2.92;2.35;;;;;;;23.45;47.06;102130.47;5048701;28;20037;-70
2021/09/07 10:44:33;;;;;;;3.90;2.10;;;;;;;24.28;42.16;102124.22;5031359;28;20442;-70
2021/09/07 10:47:13;;;;;;;3.53;2.22;;;;;;;23.56;44.16;102137.97;5014439;28;20033;-70
2021/09/07 10:49:41;;;;;;;5.18;2.80;;;;;;;24.32;46.00;102146.41;5047989;28;20453;-70
2021/09/07 10:52:12;;;;;;;3.58;2.45;;;;;;;23.87;46.82;102136.41;5031099;28;20028;-70
2021/09/07 10:54:52;;;;;;;6.13;2.90;;;;;;;23.60;46.37;102136.50;5013415;28;20037;-70
2021/09/07 10:57:37;;;;;;;5.97;2.90;;;;;;;24.63;47.96;102135.53;5029268;28;20067;-70
2021/09/07 11:00:21;;;;;;;4.37;2.83;;;;;;;24.70;44.06;102135.47;5029102;28;20395;-70
2021/09/07 11:02:57;;;;;;;4.35;2.40;;;;;;;25.43;45.17;102131.19;5029211;28;20622;-70
2021/09/07 11:05:23;;;;;;;4.40;2.85;;;;;;;25.47;43.90;102132.38;5046787;28;20033;-70
2021/09/07 11:07:49;;;;;;;5.47;2.93;;;;;;;25.73;41.13;102133.97;5029180;28;20480;-70
2021/09/07 11:10:14;;;;;;;4.32;2.47;;;;;;;25.37;44.80;102138.38;5047183;28;20036;-70
2021/09/07 11:12:49;;;;;;;5.97;3.00;;;;;;;26.05;46.18;102137.31;5048554;28;20045;-70
2021/09/07 11:15:20;;;;;;;5.85;3.10;;;;;;;25.67;45.59;102132.97;5048079;28;20398;-70
2021/09/07 11:17:59;;;;;;;6.88;3.30;;;;;;;25.62;46.47;102129.28;5030743;28;20041;-70
2021/09/07 11:20:30;;;;;;;6.40;4.15;;;;;;;26.01;44.61;102129.81;5030262;28;20044;-70